KIAD/IAD METAR and TAF weather

Enter ICAO airport designator
Station Type Date Time Source
KIAD METAR 2019/04/25 07:52 UTC NOAA

KIAD 250752Z 00000KT 10SM SCT090 BKN120 BKN200 13/08 A2989 RMK AO2 SLP120 T01330083


Station Type Date Time Source
KIAD Decoded METAR 2019/04/25 07:52 UTC NOAA

DULLES INTERNATIONAL AIRPORT, VA, United States (KIAD) 38-56N 077-27W 93M
Apr 25, 2019 - 03:52 AM EDT / 2019.04.25 0752 UTC
Wind: Calm:0
Visibility: 10 mile(s):0
Sky conditions: mostly cloudy
Temperature: 55.9 F (13.3 C)
Dew Point: 46.9 F (8.3 C)
Relative Humidity: 71%
Pressure (altimeter): 29.89 in. Hg (1012 hPa)
ob: KIAD 250752Z 00000KT 10SM SCT090 BKN120 BKN200 13/08 A2989 RMK AO2 SLP120 T01330083
cycle: 8

Station Type Date Time Source
KIAD TAF 2019/04/25 06:33 UTC NOAA

TAF KIAD 250530Z 2506/2612 00000KT P6SM BKN120
FM252000 15006KT P6SM BKN070
FM260300 13005KT P6SM -SHRA OVC045

Example: see airport list